Map

Track Data

SID SEASON NUMBER BASIN SUBBASIN NAME ISO_TIME NATURE LAT LON WMO_WIND WMO_PRES WMO_AGENCY TRACK_TYPE DIST2LAND LANDFALL IFLAG USA_AGENCY USA_ATCF_ID USA_LAT USA_LON USA_RECORD USA_STATUS USA_WIND USA_PRES USA_SSHS USA_R34_NE USA_R34_SE USA_R34_SW USA_R34_NW USA_R50_NE USA_R50_SE USA_R50_SW USA_R50_NW USA_R64_NE USA_R64_SE USA_R64_SW USA_R64_NW USA_POCI USA_ROCI USA_RMW USA_EYE TOKYO_LAT TOKYO_LON TOKYO_GRADE TOKYO_WIND TOKYO_PRES TOKYO_R50_DIR TOKYO_R50_LONG TOKYO_R50_SHORT TOKYO_R30_DIR TOKYO_R30_LONG TOKYO_R30_SHORT TOKYO_LAND CMA_LAT CMA_LON CMA_CAT CMA_WIND CMA_PRES HKO_LAT HKO_LON HKO_CAT HKO_WIND HKO_PRES NEWDELHI_LAT NEWDELHI_LON NEWDELHI_GRADE NEWDELHI_WIND NEWDELHI_PRES NEWDELHI_CI NEWDELHI_DP NEWDELHI_POCI REUNION_LAT REUNION_LON REUNION_TYPE REUNION_WIND REUNION_PRES REUNION_TNUM REUNION_CI REUNION_RMW REUNION_R34_NE REUNION_R34_SE REUNION_R34_SW REUNION_R34_NW REUNION_R50_NE REUNION_R50_SE REUNION_R50_SW REUNION_R50_NW REUNION_R64_NE REUNION_R64_SE REUNION_R64_SW REUNION_R64_NW BOM_LAT BOM_LON BOM_TYPE BOM_WIND BOM_PRES BOM_TNUM BOM_CI BOM_RMW BOM_R34_NE BOM_R34_SE BOM_R34_SW BOM_R34_NW BOM_R50_NE BOM_R50_SE BOM_R50_SW BOM_R50_NW BOM_R64_NE BOM_R64_SE BOM_R64_SW BOM_R64_NW BOM_ROCI BOM_POCI BOM_EYE BOM_POS_METHOD BOM_PRES_METHOD NADI_LAT NADI_LON NADI_CAT NADI_WIND NADI_PRES WELLINGTON_LAT WELLINGTON_LON WELLINGTON_WIND WELLINGTON_PRES DS824_LAT DS824_LON DS824_STAGE DS824_WIND DS824_PRES TD9636_LAT TD9636_LON TD9636_STAGE TD9636_WIND TD9636_PRES TD9635_LAT TD9635_LON TD9635_WIND TD9635_PRES TD9635_ROCI NEUMANN_LAT NEUMANN_LON NEUMANN_CLASS NEUMANN_WIND NEUMANN_PRES MLC_LAT MLC_LON MLC_CLASS MLC_WIND MLC_PRES USA_GUST BOM_GUST BOM_GUST_PER REUNION_GUST REUNION_GUST_PER USA_SEAHGT USA_SEARAD_NE USA_SEARAD_SE USA_SEARAD_SW USA_SEARAD_NW STORM_SPEED STORM_DIR
1929281N14120 1929 66 WP MM NOT_NAMED 1929-10-07 22:00:00 NR 13.6000 119.700 main 68 68 __________O___ -1 13.6000 119.700 7 10 272
1929281N14120 1929 66 WP MM NOT_NAMED 1929-10-08 00:00:00 NR 13.6119 119.355 main 99 110 __________P___ -1 13.6119 119.355 7 10 272
1929281N14120 1929 66 WP MM NOT_NAMED 1929-10-08 03:00:00 NR 13.6311 118.836 main 163 163 __________P___ -1 13.6311 118.836 7 10 272
1929281N14120 1929 66 WP MM NOT_NAMED 1929-10-08 06:00:00 NR 13.6550 118.312 main 218 218 __________P___ -1 13.6550 118.312 7 10 273
1929281N14120 1929 66 WP MM NOT_NAMED 1929-10-08 09:00:00 NR 13.6870 117.780 main 272 272 __________P___ -1 13.6870 117.780 7 10 274
1929281N14120 1929 66 WP MM NOT_NAMED 1929-10-08 10:00:00 NR 13.7000 117.600 main 293 293 __________O___ -1 13.7000 117.600 7 11 275
1929281N14120 1929 66 WP MM NOT_NAMED 1929-10-08 12:00:00 NR 13.7299 117.236 main 336 336 __________P___ -1 13.7299 117.236 7 11 275
1929281N14120 1929 66 WP MM NOT_NAMED 1929-10-08 15:00:00 NR 13.7814 116.678 main 383 393 __________P___ -1 13.7814 116.678 7 11 275
1929281N14120 1929 66 WP MM NOT_NAMED 1929-10-08 18:00:00 NR 13.8352 116.101 main 445 445 __________P___ -1 13.8352 116.101 7 11 275
1929281N14120 1929 66 WP MM NOT_NAMED 1929-10-08 21:00:00 NR 13.8852 115.504 main 502 502 __________P___ -1 13.8852 115.504 7 12 275
1929281N14120 1929 66 WP MM NOT_NAMED 1929-10-08 22:00:00 NR 13.9000 115.300 main 522 522 __________O___ -1 13.9000 115.300 7 12 273
1929281N14120 1929 66 WP MM NOT_NAMED 1929-10-09 00:00:00 NR 13.9198 114.873 main 563 520 __________P___ -1 13.9198 114.873 7 13 272
1929281N14120 1929 66 WP MM NOT_NAMED 1929-10-09 03:00:00 NR 13.9431 114.214 main 520 460 __________P___ -1 13.9431 114.214 7 13 272
1929281N14120 1929 66 WP MM NOT_NAMED 1929-10-09 06:00:00 NR 13.9643 113.551 main 460 387 __________P___ -1 13.9643 113.551 7 13 272
1929281N14120 1929 66 WP MM NOT_NAMED 1929-10-09 09:00:00 NR 13.9895 112.907 main 387 367 __________P___ -1 13.9895 112.907 7 12 272
1929281N14120 1929 66 WP MM NOT_NAMED 1929-10-09 10:00:00 NR 14.0000 112.700 main 367 324 __________O___ -1 14.0000 112.700 7 12 274
1929281N14120 1929 66 WP MM NOT_NAMED 1929-10-09 12:00:00 NR 14.0271 112.308 main 324 260 __________P___ -1 14.0271 112.308 7 11 275
1929281N14120 1929 66 WP MM NOT_NAMED 1929-10-09 15:00:00 NR 14.0745 111.745 main 260 206 __________P___ -1 14.0745 111.745 7 11 275
1929281N14120 1929 66 WP MM NOT_NAMED 1929-10-09 18:00:00 NR 14.1272 111.204 main 206 154 __________P___ -1 14.1272 111.204 7 10 276
1929281N14120 1929 66 WP MM NOT_NAMED 1929-10-09 21:00:00 NR 14.1819 110.675 main 154 133 __________P___ -1 14.1819 110.675 7 10 276
1929281N14120 1929 66 WP MM NOT_NAMED 1929-10-09 22:00:00 NR 14.2000 110.500 main 133 92 __________O___ -1 14.2000 110.500 7 10 275
1929281N14120 1929 66 WP MM NOT_NAMED 1929-10-10 00:00:00 NR 14.2278 110.144 main 92 48 __________P___ -1 14.2278 110.144 7 10 275
1929281N14120 1929 66 WP MM NOT_NAMED 1929-10-10 03:00:00 NR 14.2696 109.617 main 48 0 __________P___ -1 14.2696 109.617 7 10 275
1929281N14120 1929 66 WP MM NOT_NAMED 1929-10-10 06:00:00 NR 14.3170 109.094 main 0 0 __________P___ -1 14.3170 109.094 7 10 276
1929281N14120 1929 66 WP MM NOT_NAMED 1929-10-10 09:00:00 NR 14.3765 108.574 main 0 0 __________P___ -1 14.3765 108.574 7 10 277
1929281N14120 1929 66 WP MM NOT_NAMED 1929-10-10 10:00:00 NR 14.4000 108.400 main 0 0 __________O___ -1 14.4000 108.400 7 10 279
1929281N14120 1929 66 WP MM NOT_NAMED 1929-10-10 12:00:00 NR 14.4535 108.052 main 0 0 __________P___ -1 14.4535 108.052 7 10 280
1929281N14120 1929 66 WP MM NOT_NAMED 1929-10-10 15:00:00 NR 14.5470 107.528 main 0 0 __________P___ -1 14.5470 107.528 7 10 281
1929281N14120 1929 66 WP MM NOT_NAMED 1929-10-10 18:00:00 NR 14.6519 107.003 main 0 0 __________P___ -1 14.6519 107.003 7 10 282
1929281N14120 1929 66 WP MM NOT_NAMED 1929-10-10 21:00:00 NR 14.7627 106.476 main 0 0 __________P___ -1 14.7627 106.476 7 10 282
1929281N14120 1929 66 WP MM NOT_NAMED 1929-10-10 22:00:00 NR 14.8000 106.300 main 0 __________O___ -1 14.8000 106.300 7 10 282

Digital Typhoon Data and Search

About IBTrACS Database

This database is a web-friendly format of International Best Track Archive for Climate Stewardship (IBTrACS), a global best track data archive curated by NOAA dating back to 1842.

Updated: 2021-12-01